Avalon, PA

7:29 PM EDT on August 26, 2016 (GMT -0400)
Ben Avon | | Change Station

Elev 869 ft 40.51 °N, 80.08 °W | Updated 3 minutes ago

Partly Cloudy
Partly Cloudy
84.8 °F
Feels Like 86 °F
N
0.1
Wind Variable Wind from North
Gusts 1.1 mph

Today
High -- | Low -- °F
--% Chance of Precip.
Yesterday
High -- | Low -- °F
Precip. -- in
Pressure 30.11 in
Visibility 10.0 miles
Clouds Few 5000 ft
Few 25000 ft
Heat Index 86 °F
Dew Point 63 °F
Humidity 48%
Rainfall 0.54 in
Snow Depth Not available.
6:42 AM 8:00 PM
Waning Crescent, 30% visible
METAR KPIT 262251Z 02009KT 10SM FEW050 FEW250 29/12 A3012 RMK AO2 SLP196 T02940122
Pressure 30.11 in
Visibility 10.0 miles
Clouds Few 5000 ft
Few 25000 ft
Heat Index 86 °F
Dew Point 63 °F
Humidity 48%
Rainfall 0.54 in
Snow Depth Not available.
6:42 AM 8:00 PM
Waning Crescent, 30% visible
METAR KPIT 262251Z 02009KT 10SM FEW050 FEW250 29/12 A3012 RMK AO2 SLP196 T02940122

10-Day Weather Forecast

Almanac

Astronomy

Aug. 26, 2016 Rise Set
Actual Time
Civil Twilight
Nautical Twilight
Astronomical Twilight
Moon
Length of Visible Light
Length of Day
Tomorrow will be .
, % of the Moon is Illuminated

Today's Extremes

State Highs State Lows

Community

WunderPhotos

Upload Photos

1,935,254 photos uploaded!

WunderBlog® & News

Nearby

Air Quality

  Air Quality AQ Index Pollutant
Not available.

Snow Depth

Station Depth Elevation

Earthquake Activity

City Distance Mag. Time & Date
Minimum magnitude displayed is 2.5.

Coastal Water Temperatures

Place Temperature

Stations

Nearby Weather Stations

Station Location Temp. Windchill Dew Point Humidity Wind Precip. Elev Updated Type
                   

Watches & Warnings

There are currently no watches in effect.